createdAt,value
2023-05-20T00:01:40.588Z,100526.81
2023-05-20T00:06:42.495Z,100538.09
2023-05-20T00:11:45.078Z,100541.00
2023-05-20T00:16:46.673Z,100528.53
2023-05-20T00:21:48.145Z,100529.75
2023-05-20T00:26:49.595Z,100524.63
2023-05-20T00:31:51.363Z,100529.69
2023-05-20T00:36:53.376Z,100486.63
2023-05-20T00:41:55.109Z,100522.94
2023-05-20T00:46:56.839Z,100520.25
2023-05-20T00:51:58.860Z,100520.06
2023-05-20T00:57:03.002Z,100513.50
2023-05-20T01:02:04.954Z,100517.19
2023-05-20T01:07:07.484Z,100500.88
2023-05-20T01:12:20.806Z,100509.56
2023-05-20T01:17:27.865Z,100468.75
2023-05-20T01:22:29.932Z,100505.09
2023-05-20T01:27:31.567Z,100491.75
2023-05-20T01:32:37.349Z,100492.84
2023-05-20T01:37:41.334Z,100489.34
2023-05-20T01:42:44.820Z,100494.50
2023-05-20T01:47:46.772Z,100479.53
2023-05-20T01:52:48.455Z,100482.53
2023-05-20T01:57:50.293Z,100478.63
2023-05-20T02:02:51.963Z,100471.47
2023-05-20T02:07:53.594Z,100472.63
2023-05-20T02:12:55.244Z,100455.53
2023-05-20T02:17:58.032Z,100458.63
2023-05-20T02:22:59.904Z,100475.84
2023-05-20T02:28:01.718Z,100465.41
2023-05-20T02:33:03.463Z,100465.34
2023-05-20T02:38:04.896Z,100470.53
2023-05-20T02:43:06.366Z,100474.78
2023-05-20T02:48:07.874Z,100477.16
2023-05-20T02:53:09.613Z,100473.94
2023-05-20T02:58:13.385Z,100464.31
2023-05-20T03:03:14.889Z,100465.41
2023-05-20T03:08:16.261Z,100469.94
2023-05-20T03:13:17.775Z,100461.75
2023-05-20T03:18:19.250Z,100449.03
2023-05-20T03:23:21.294Z,100448.06
2023-05-20T03:28:22.733Z,100442.84
2023-05-20T03:33:26.426Z,100426.25
2023-05-20T03:38:27.992Z,100422.81
2023-05-20T03:43:30.388Z,100415.31
2023-05-20T03:48:32.063Z,100432.88
2023-05-20T03:53:33.859Z,100431.91
2023-05-20T03:58:35.347Z,100430.75
2023-05-20T04:03:36.897Z,100452.16
2023-05-20T04:08:38.545Z,100454.44
2023-05-20T04:13:39.952Z,100435.25
2023-05-20T04:18:41.949Z,100438.66
2023-05-20T04:23:43.396Z,100441.06
2023-05-20T04:28:45.084Z,100437.78
2023-05-20T04:33:46.905Z,100448.06
2023-05-20T04:38:49.602Z,100440.03
2023-05-20T04:43:51.089Z,100422.00
2023-05-20T04:48:53.848Z,100443.66
2023-05-20T04:53:55.322Z,100439.72
2023-05-20T04:58:56.779Z,100440.00
2023-05-20T05:03:58.467Z,100448.13
2023-05-20T05:09:00.052Z,100433.53
2023-05-20T05:14:01.726Z,100439.28
2023-05-20T05:19:03.124Z,100434.31
2023-05-20T05:24:04.764Z,100426.25
2023-05-20T05:29:06.380Z,100432.41
2023-05-20T05:34:07.984Z,100423.38
2023-05-20T05:39:09.563Z,100424.38
2023-05-20T05:44:10.951Z,100423.78
2023-05-20T05:49:12.593Z,100410.13
2023-05-20T05:54:13.990Z,100409.75
2023-05-20T05:59:16.272Z,100414.34
2023-05-20T06:04:18.181Z,100396.03
2023-05-20T06:09:19.587Z,100421.41
2023-05-20T06:14:21.405Z,100430.22
2023-05-20T06:19:22.910Z,100425.56
2023-05-20T06:24:24.815Z,100417.19
2023-05-20T06:29:26.548Z,100415.66
2023-05-20T06:34:28.104Z,100412.81
2023-05-20T06:39:29.705Z,100422.31
2023-05-20T06:44:31.594Z,100413.94
2023-05-20T06:49:33.168Z,100411.47
2023-05-20T06:54:39.864Z,100411.25
2023-05-20T06:59:42.077Z,100408.78
2023-05-20T07:04:43.593Z,100402.94
2023-05-20T07:09:45.265Z,100407.94
2023-05-20T07:14:47.805Z,100406.22
2023-05-20T07:19:49.486Z,100392.34
2023-05-20T07:24:50.952Z,100364.72
2023-05-20T07:29:52.458Z,100392.44
2023-05-20T07:34:53.843Z,100397.88
2023-05-20T07:39:55.462Z,100385.19
2023-05-20T07:44:57.007Z,100383.56
2023-05-20T07:49:58.726Z,100382.09
2023-05-20T07:55:00.183Z,100357.59
2023-05-20T08:00:01.666Z,100351.69
2023-05-20T08:05:03.274Z,100361.63
2023-05-20T08:10:05.735Z,100368.56
2023-05-20T08:15:08.150Z,100367.19
2023-05-20T08:20:10.835Z,100364.47
2023-05-20T08:25:12.291Z,100355.69
2023-05-20T08:30:13.829Z,100357.03
2023-05-20T08:35:15.464Z,100355.72
2023-05-20T08:40:17.001Z,100339.16
2023-05-20T08:45:21.115Z,100337.19
2023-05-20T08:50:22.740Z,100335.03
2023-05-20T08:55:37.674Z,100337.41
2023-05-20T09:00:39.431Z,100344.38
2023-05-20T09:05:43.377Z,100346.38
2023-05-20T09:10:44.902Z,100333.41
2023-05-20T09:15:46.290Z,100343.78
2023-05-20T09:20:50.896Z,100340.06
2023-05-20T09:25:53.236Z,100337.19
2023-05-20T09:30:59.068Z,100328.41
2023-05-20T09:36:07.411Z,100335.09
2023-05-20T09:41:13.688Z,100323.91
2023-05-20T09:46:16.785Z,100326.72
2023-05-20T09:51:19.102Z,100322.66
2023-05-20T09:56:22.049Z,100331.47
2023-05-20T10:01:23.834Z,100325.84
2023-05-20T10:06:59.838Z,100316.75
2023-05-20T10:12:39.361Z,100318.75
2023-05-20T10:17:46.869Z,100319.00
2023-05-20T10:22:58.136Z,100311.00
2023-05-20T10:28:08.738Z,100316.56
2023-05-20T10:33:18.227Z,100315.25
2023-05-20T10:38:21.547Z,100287.09
2023-05-20T10:43:28.476Z,100288.25
2023-05-20T10:48:34.196Z,100291.50
2023-05-20T10:53:42.887Z,100283.81
2023-05-20T10:58:44.716Z,100270.50
2023-05-20T11:03:49.488Z,100270.31
2023-05-20T11:08:51.329Z,100273.50
2023-05-20T11:13:53.201Z,100275.53
2023-05-20T11:18:54.761Z,100269.38
2023-05-20T11:23:56.784Z,100270.13
2023-05-20T11:28:59.395Z,100272.13
2023-05-20T11:34:02.498Z,100264.38
2023-05-20T11:39:05.526Z,100264.78
2023-05-20T11:44:11.874Z,100258.94
2023-05-20T11:49:14.084Z,100244.94
2023-05-20T11:54:15.516Z,100241.81
2023-05-20T11:59:16.981Z,100246.22
2023-05-20T12:04:18.903Z,100240.97
2023-05-20T12:09:20.616Z,100228.63
2023-05-20T12:14:22.186Z,100238.03
2023-05-20T12:19:23.721Z,100224.66
2023-05-20T12:24:25.332Z,100223.41
2023-05-20T12:29:27.028Z,100207.94
2023-05-20T12:34:28.580Z,100221.75
2023-05-20T12:39:29.920Z,100209.19
2023-05-20T12:44:31.452Z,100206.03
2023-05-20T12:49:32.899Z,100211.28
2023-05-20T12:54:34.738Z,100211.50
2023-05-20T12:59:36.265Z,100191.88
2023-05-20T13:04:38.011Z,100186.25
2023-05-20T13:09:39.497Z,100187.09
2023-05-20T13:14:41.630Z,100193.75
2023-05-20T13:19:44.331Z,100187.91
2023-05-20T13:24:45.748Z,100185.56
2023-05-20T13:29:47.503Z,100187.44
2023-05-20T13:34:49.110Z,100179.06
2023-05-20T13:39:51.490Z,100180.34
2023-05-20T13:44:52.980Z,100173.63
2023-05-20T13:49:54.359Z,100168.28
2023-05-20T13:54:56.096Z,100164.53
2023-05-20T13:59:57.465Z,100153.22
2023-05-20T14:04:58.887Z,100156.16
2023-05-20T14:10:00.423Z,100147.59
2023-05-20T14:15:01.826Z,100149.44
2023-05-20T14:20:03.794Z,100136.06
2023-05-20T14:25:06.232Z,100153.22
2023-05-20T14:30:08.531Z,100130.44
2023-05-20T14:35:10.499Z,100135.25
2023-05-20T14:40:12.320Z,100129.84
2023-05-20T14:45:13.730Z,100125.47
2023-05-20T14:50:15.642Z,100109.81
2023-05-20T14:55:17.358Z,100073.06
2023-05-20T15:00:19.042Z,100119.38
2023-05-20T15:05:20.786Z,100098.06
2023-05-20T15:10:22.279Z,100119.59
2023-05-20T15:15:23.966Z,100109.78
2023-05-20T15:20:25.650Z,100111.84
2023-05-20T15:25:27.172Z,100099.78
2023-05-20T15:30:28.608Z,100093.72
2023-05-20T15:35:30.279Z,100082.41
2023-05-20T15:40:32.183Z,100101.81
2023-05-20T15:45:33.985Z,100097.22
2023-05-20T15:50:37.137Z,100088.66
2023-05-20T15:55:38.683Z,100093.84
2023-05-20T16:00:40.463Z,100060.91
2023-05-20T16:05:42.489Z,100082.22
2023-05-20T16:10:43.935Z,100091.28
2023-05-20T16:15:45.785Z,100097.94
2023-05-20T16:20:47.458Z,100110.84
2023-05-20T16:25:48.922Z,100092.47
2023-05-20T16:30:50.418Z,100109.09
2023-05-20T16:35:52.556Z,100095.94
2023-05-20T16:40:54.298Z,100091.53
2023-05-20T16:45:56.315Z,100086.03
2023-05-20T16:50:57.992Z,100090.78
2023-05-20T16:55:59.424Z,100090.97
2023-05-20T17:01:01.925Z,100092.41
2023-05-20T17:06:03.708Z,100109.72
2023-05-20T17:11:05.503Z,100108.53
2023-05-20T17:16:09.735Z,100107.47
2023-05-20T17:21:13.163Z,100110.56
2023-05-20T17:26:16.859Z,100135.13
2023-05-20T17:31:18.378Z,100134.41
2023-05-20T17:36:22.683Z,100118.78
2023-05-20T17:41:24.161Z,100122.13
2023-05-20T17:46:25.676Z,100114.28
2023-05-20T17:51:27.507Z,100126.47
2023-05-20T17:56:29.033Z,100131.06
2023-05-20T18:01:31.033Z,100134.59
2023-05-20T18:06:34.785Z,100128.72
2023-05-20T18:11:36.536Z,100144.94
2023-05-20T18:16:38.430Z,100141.13
2023-05-20T18:21:40.176Z,100146.03
2023-05-20T18:26:42.035Z,100141.97
2023-05-20T18:31:43.850Z,100124.13
2023-05-20T18:36:45.395Z,100133.59
2023-05-20T18:41:47.743Z,100141.63
2023-05-20T18:46:49.264Z,100148.47
2023-05-20T18:51:51.022Z,100135.91
2023-05-20T18:56:52.620Z,100143.69
2023-05-20T19:01:54.109Z,100134.25
2023-05-20T19:06:55.810Z,100136.63
2023-05-20T19:11:59.320Z,100133.72
2023-05-20T19:17:01.167Z,100138.00
2023-05-20T19:22:02.972Z,100130.91
2023-05-20T19:27:05.116Z,100140.59
2023-05-20T19:32:06.834Z,100136.28
2023-05-20T19:37:08.255Z,100145.22
2023-05-20T19:42:09.658Z,100134.13
2023-05-20T19:47:11.175Z,100143.59
2023-05-20T19:52:12.939Z,100152.16
2023-05-20T19:57:14.946Z,100149.69
2023-05-20T20:02:16.640Z,100147.34
2023-05-20T20:07:18.194Z,100147.25
2023-05-20T20:12:19.674Z,100150.22
2023-05-20T20:17:23.262Z,100150.72
2023-05-20T20:22:24.998Z,100150.19
2023-05-20T20:27:26.427Z,100138.78
2023-05-20T20:32:28.380Z,100148.84
2023-05-20T20:37:30.136Z,100135.81
2023-05-20T20:42:32.408Z,100128.75
2023-05-20T20:47:34.268Z,100128.63
2023-05-20T20:52:36.366Z,100121.25
2023-05-20T20:57:38.065Z,100114.19
2023-05-20T21:02:39.486Z,100115.59
2023-05-20T21:07:44.714Z,100110.97
2023-05-20T21:12:46.402Z,100111.97
2023-05-20T21:17:47.877Z,100097.69
2023-05-20T21:22:49.408Z,100099.84
2023-05-20T21:27:51.090Z,100104.31
2023-05-20T21:32:52.786Z,100082.13
2023-05-20T21:37:54.319Z,100101.09
2023-05-20T21:42:55.874Z,100083.16
2023-05-20T21:47:57.336Z,100096.91
2023-05-20T21:52:58.882Z,100079.69
2023-05-20T21:58:00.340Z,100075.63
2023-05-20T22:03:01.908Z,100076.09
2023-05-20T22:08:03.706Z,100077.16
2023-05-20T22:13:05.515Z,100051.94
2023-05-20T22:18:07.908Z,100069.78
2023-05-20T22:23:09.429Z,100067.09
2023-05-20T22:28:11.074Z,100066.97
2023-05-20T22:33:13.230Z,100047.44
2023-05-20T22:38:14.735Z,100048.06
2023-05-20T22:43:16.545Z,100046.91
2023-05-20T22:48:19.284Z,100039.53
2023-05-20T22:53:20.739Z,100041.22
2023-05-20T22:58:22.514Z,100033.34
2023-05-20T23:03:24.075Z,100009.34
2023-05-20T23:08:26.083Z,100015.91
2023-05-20T23:13:28.119Z,100012.34
2023-05-20T23:18:29.660Z,100005.63
2023-05-20T23:23:32.394Z,100000.59
2023-05-20T23:28:34.920Z,100003.16
2023-05-20T23:33:36.772Z,99991.91
2023-05-20T23:38:40.634Z,99984.03
2023-05-20T23:43:42.784Z,99990.88
2023-05-20T23:48:45.206Z,99991.88
2023-05-20T23:53:46.947Z,99986.53
2023-05-20T23:58:48.296Z,99989.22
